sensor_id;sensor_type;location;lat;lon;timestamp;temperature;humidity
69335;SHT31;56477;52.742;15.242;2023-05-29T00:01:22;12.16;78.93
69335;SHT31;56477;52.742;15.242;2023-05-29T00:03:50;12.10;79.14
69335;SHT31;56477;52.742;15.242;2023-05-29T00:06:19;11.99;79.47
69335;SHT31;56477;52.742;15.242;2023-05-29T00:08:45;11.95;79.76
69335;SHT31;56477;52.742;15.242;2023-05-29T00:11:12;11.92;79.77
69335;SHT31;56477;52.742;15.242;2023-05-29T00:13:38;11.90;79.79
69335;SHT31;56477;52.742;15.242;2023-05-29T00:16:04;11.86;80.20
69335;SHT31;56477;52.742;15.242;2023-05-29T00:18:30;11.82;80.44
69335;SHT31;56477;52.742;15.242;2023-05-29T00:20:56;11.81;80.32
69335;SHT31;56477;52.742;15.242;2023-05-29T00:23:22;11.79;80.26
69335;SHT31;56477;52.742;15.242;2023-05-29T00:25:48;11.79;80.19
69335;SHT31;56477;52.742;15.242;2023-05-29T00:28:14;11.75;80.37
69335;SHT31;56477;52.742;15.242;2023-05-29T00:30:40;11.68;80.39
69335;SHT31;56477;52.742;15.242;2023-05-29T00:33:06;11.68;80.68
69335;SHT31;56477;52.742;15.242;2023-05-29T00:35:32;11.65;80.89
69335;SHT31;56477;52.742;15.242;2023-05-29T00:37:58;11.57;81.14
69335;SHT31;56477;52.742;15.242;2023-05-29T00:40:25;11.57;81.05
69335;SHT31;56477;52.742;15.242;2023-05-29T00:42:51;11.51;81.39
69335;SHT31;56477;52.742;15.242;2023-05-29T00:45:17;11.45;81.52
69335;SHT31;56477;52.742;15.242;2023-05-29T00:47:44;11.41;81.64
69335;SHT31;56477;52.742;15.242;2023-05-29T00:50:12;11.35;81.90
69335;SHT31;56477;52.742;15.242;2023-05-29T00:52:43;11.27;81.95
69335;SHT31;56477;52.742;15.242;2023-05-29T00:55:10;11.25;82.08
69335;SHT31;56477;52.742;15.242;2023-05-29T00:57:37;11.18;82.14
69335;SHT31;56477;52.742;15.242;2023-05-29T01:00:06;11.13;82.46
69335;SHT31;56477;52.742;15.242;2023-05-29T01:02:40;11.11;82.75
69335;SHT31;56477;52.742;15.242;2023-05-29T01:05:11;11.06;82.81
69335;SHT31;56477;52.742;15.242;2023-05-29T01:07:38;11.00;82.78
69335;SHT31;56477;52.742;15.242;2023-05-29T01:10:05;10.97;83.10
69335;SHT31;56477;52.742;15.242;2023-05-29T01:17:51;10.79;83.86
69335;SHT31;56477;52.742;15.242;2023-05-29T01:26:02;10.81;83.54
69335;SHT31;56477;52.742;15.242;2023-05-29T01:28:37;10.89;83.07
69335;SHT31;56477;52.742;15.242;2023-05-29T01:31:07;10.95;82.88
69335;SHT31;56477;52.742;15.242;2023-05-29T01:33:33;10.92;82.58
69335;SHT31;56477;52.742;15.242;2023-05-29T01:35:59;10.92;82.60
69335;SHT31;56477;52.742;15.242;2023-05-29T01:38:25;10.90;82.79
69335;SHT31;56477;52.742;15.242;2023-05-29T01:40:51;10.87;82.77
69335;SHT31;56477;52.742;15.242;2023-05-29T01:43:17;10.89;82.83
69335;SHT31;56477;52.742;15.242;2023-05-29T01:45:44;10.80;83.01
69335;SHT31;56477;52.742;15.242;2023-05-29T01:48:10;10.79;83.01
69335;SHT31;56477;52.742;15.242;2023-05-29T01:50:36;10.67;83.43
69335;SHT31;56477;52.742;15.242;2023-05-29T01:53:03;10.60;83.60
69335;SHT31;56477;52.742;15.242;2023-05-29T01:55:29;10.56;83.88
69335;SHT31;56477;52.742;15.242;2023-05-29T01:57:55;10.50;84.03
69335;SHT31;56477;52.742;15.242;2023-05-29T02:00:22;10.48;84.15
69335;SHT31;56477;52.742;15.242;2023-05-29T02:02:49;10.46;84.36
69335;SHT31;56477;52.742;15.242;2023-05-29T02:05:15;10.46;84.30
69335;SHT31;56477;52.742;15.242;2023-05-29T02:07:42;10.45;84.36
69335;SHT31;56477;52.742;15.242;2023-05-29T02:10:09;10.42;84.53
69335;SHT31;56477;52.742;15.242;2023-05-29T02:12:35;10.46;84.24
69335;SHT31;56477;52.742;15.242;2023-05-29T02:15:01;10.45;84.30
69335;SHT31;56477;52.742;15.242;2023-05-29T02:17:27;10.44;84.09
69335;SHT31;56477;52.742;15.242;2023-05-29T02:19:53;10.46;84.19
69335;SHT31;56477;52.742;15.242;2023-05-29T02:22:19;10.38;84.50
69335;SHT31;56477;52.742;15.242;2023-05-29T02:24:45;10.34;84.46
69335;SHT31;56477;52.742;15.242;2023-05-29T02:27:11;10.31;84.41
69335;SHT31;56477;52.742;15.242;2023-05-29T02:29:37;10.32;84.55
69335;SHT31;56477;52.742;15.242;2023-05-29T02:32:03;10.32;84.48
69335;SHT31;56477;52.742;15.242;2023-05-29T02:34:30;10.32;84.34
69335;SHT31;56477;52.742;15.242;2023-05-29T02:36:56;10.24;84.69
69335;SHT31;56477;52.742;15.242;2023-05-29T02:39:28;10.19;84.65
69335;SHT31;56477;52.742;15.242;2023-05-29T02:41:54;10.15;84.90
69335;SHT31;56477;52.742;15.242;2023-05-29T02:44:20;10.18;84.71
69335;SHT31;56477;52.742;15.242;2023-05-29T02:46:46;10.19;84.80
69335;SHT31;56477;52.742;15.242;2023-05-29T02:49:12;10.24;84.72
69335;SHT31;56477;52.742;15.242;2023-05-29T02:51:38;10.25;84.50
69335;SHT31;56477;52.742;15.242;2023-05-29T02:54:04;10.21;84.68
69335;SHT31;56477;52.742;15.242;2023-05-29T02:56:30;10.22;84.51
69335;SHT31;56477;52.742;15.242;2023-05-29T02:58:56;10.18;84.69
69335;SHT31;56477;52.742;15.242;2023-05-29T03:01:22;10.15;84.96
69335;SHT31;56477;52.742;15.242;2023-05-29T03:03:48;10.12;84.89
69335;SHT31;56477;52.742;15.242;2023-05-29T03:06:16;10.05;85.21
69335;SHT31;56477;52.742;15.242;2023-05-29T03:08:45;10.00;85.35
69335;SHT31;56477;52.742;15.242;2023-05-29T03:11:12;9.97;85.60
69335;SHT31;56477;52.742;15.242;2023-05-29T03:13:39;10.00;85.49
69335;SHT31;56477;52.742;15.242;2023-05-29T03:16:05;10.05;85.06
69335;SHT31;56477;52.742;15.242;2023-05-29T03:18:31;10.12;84.72
69335;SHT31;56477;52.742;15.242;2023-05-29T03:20:57;10.12;84.78
69335;SHT31;56477;52.742;15.242;2023-05-29T03:23:24;10.12;84.51
69335;SHT31;56477;52.742;15.242;2023-05-29T03:25:50;10.18;84.27
69335;SHT31;56477;52.742;15.242;2023-05-29T03:28:16;10.18;84.30
69335;SHT31;56477;52.742;15.242;2023-05-29T03:30:42;10.25;83.79
69335;SHT31;56477;52.742;15.242;2023-05-29T03:33:11;10.27;83.98
69335;SHT31;56477;52.742;15.242;2023-05-29T03:35:36;10.25;84.09
69335;SHT31;56477;52.742;15.242;2023-05-29T03:38:02;10.21;83.48
69335;SHT31;56477;52.742;15.242;2023-05-29T03:40:28;10.22;83.73
69335;SHT31;56477;52.742;15.242;2023-05-29T03:42:54;10.24;83.87
69335;SHT31;56477;52.742;15.242;2023-05-29T03:45:20;10.27;83.67
69335;SHT31;56477;52.742;15.242;2023-05-29T03:47:46;10.22;83.65
69335;SHT31;56477;52.742;15.242;2023-05-29T03:50:12;10.24;83.63
69335;SHT31;56477;52.742;15.242;2023-05-29T03:52:42;10.25;83.99
69335;SHT31;56477;52.742;15.242;2023-05-29T03:55:11;10.31;83.93
69335;SHT31;56477;52.742;15.242;2023-05-29T03:57:40;10.34;84.01
69335;SHT31;56477;52.742;15.242;2023-05-29T04:00:10;10.37;84.11
69335;SHT31;56477;52.742;15.242;2023-05-29T04:02:38;10.35;84.40
69335;SHT31;56477;52.742;15.242;2023-05-29T04:05:05;10.35;84.62
69335;SHT31;56477;52.742;15.242;2023-05-29T04:07:39;10.37;84.46
69335;SHT31;56477;52.742;15.242;2023-05-29T04:10:06;10.42;84.49
69335;SHT31;56477;52.742;15.242;2023-05-29T04:12:33;10.45;84.61
69335;SHT31;56477;52.742;15.242;2023-05-29T04:14:59;10.48;84.52
69335;SHT31;56477;52.742;15.242;2023-05-29T04:17:25;10.53;83.90
69335;SHT31;56477;52.742;15.242;2023-05-29T04:19:51;10.56;84.19
69335;SHT31;56477;52.742;15.242;2023-05-29T04:22:17;10.63;83.98
69335;SHT31;56477;52.742;15.242;2023-05-29T04:24:47;10.72;84.05
69335;SHT31;56477;52.742;15.242;2023-05-29T04:27:13;10.83;84.15
69335;SHT31;56477;52.742;15.242;2023-05-29T04:29:39;10.96;83.65
69335;SHT31;56477;52.742;15.242;2023-05-29T04:32:11;11.10;82.91
69335;SHT31;56477;52.742;15.242;2023-05-29T04:34:38;11.27;82.07
69335;SHT31;56477;52.742;15.242;2023-05-29T04:37:10;11.46;81.24
69335;SHT31;56477;52.742;15.242;2023-05-29T04:39:36;11.64;80.71
69335;SHT31;56477;52.742;15.242;2023-05-29T04:42:02;11.82;80.19
69335;SHT31;56477;52.742;15.242;2023-05-29T04:44:28;11.97;79.97
69335;SHT31;56477;52.742;15.242;2023-05-29T04:46:55;12.07;80.09
69335;SHT31;56477;52.742;15.242;2023-05-29T04:49:22;12.12;79.05
69335;SHT31;56477;52.742;15.242;2023-05-29T04:51:48;12.24;78.80
69335;SHT31;56477;52.742;15.242;2023-05-29T04:54:18;12.31;79.03
69335;SHT31;56477;52.742;15.242;2023-05-29T04:56:46;12.36;78.37
69335;SHT31;56477;52.742;15.242;2023-05-29T04:59:12;12.45;78.17
69335;SHT31;56477;52.742;15.242;2023-05-29T05:01:38;12.58;78.67
69335;SHT31;56477;52.742;15.242;2023-05-29T05:04:04;12.61;78.06
69335;SHT31;56477;52.742;15.242;2023-05-29T05:06:31;12.72;78.30
69335;SHT31;56477;52.742;15.242;2023-05-29T05:08:57;12.82;78.71
69335;SHT31;56477;52.742;15.242;2023-05-29T05:11:23;12.96;77.18
69335;SHT31;56477;52.742;15.242;2023-05-29T05:13:50;13.16;76.28
69335;SHT31;56477;52.742;15.242;2023-05-29T05:16:16;13.35;74.81
69335;SHT31;56477;52.742;15.242;2023-05-29T05:18:45;13.42;74.82
69335;SHT31;56477;52.742;15.242;2023-05-29T05:21:11;13.46;73.57
69335;SHT31;56477;52.742;15.242;2023-05-29T05:23:37;13.51;74.02
69335;SHT31;56477;52.742;15.242;2023-05-29T05:26:03;13.51;73.36
69335;SHT31;56477;52.742;15.242;2023-05-29T05:28:30;13.46;73.38
69335;SHT31;56477;52.742;15.242;2023-05-29T05:30:56;13.44;73.55
69335;SHT31;56477;52.742;15.242;2023-05-29T05:33:21;13.40;75.68
69335;SHT31;56477;52.742;15.242;2023-05-29T05:35:48;13.43;74.85
69335;SHT31;56477;52.742;15.242;2023-05-29T05:38:16;13.46;75.29
69335;SHT31;56477;52.742;15.242;2023-05-29T05:40:42;13.53;75.58
69335;SHT31;56477;52.742;15.242;2023-05-29T05:43:10;13.64;74.85
69335;SHT31;56477;52.742;15.242;2023-05-29T05:45:36;13.63;74.44
69335;SHT31;56477;52.742;15.242;2023-05-29T05:48:08;13.66;74.49
69335;SHT31;56477;52.742;15.242;2023-05-29T05:50:35;13.75;75.05
69335;SHT31;56477;52.742;15.242;2023-05-29T05:53:00;13.85;74.48
69335;SHT31;56477;52.742;15.242;2023-05-29T05:55:27;13.97;74.58
69335;SHT31;56477;52.742;15.242;2023-05-29T05:57:54;14.01;74.03
69335;SHT31;56477;52.742;15.242;2023-05-29T06:00:23;14.12;73.86
69335;SHT31;56477;52.742;15.242;2023-05-29T06:02:49;14.26;72.68
69335;SHT31;56477;52.742;15.242;2023-05-29T06:05:15;14.42;72.48
69335;SHT31;56477;52.742;15.242;2023-05-29T06:07:41;14.57;71.78
69335;SHT31;56477;52.742;15.242;2023-05-29T06:10:07;14.72;71.69
69335;SHT31;56477;52.742;15.242;2023-05-29T06:12:34;14.84;71.54
69335;SHT31;56477;52.742;15.242;2023-05-29T06:15:03;14.97;71.50
69335;SHT31;56477;52.742;15.242;2023-05-29T06:17:30;15.08;70.94
69335;SHT31;56477;52.742;15.242;2023-05-29T06:19:55;15.12;70.22
69335;SHT31;56477;52.742;15.242;2023-05-29T06:22:22;15.25;70.05
69335;SHT31;56477;52.742;15.242;2023-05-29T06:24:47;15.35;70.02
69335;SHT31;56477;52.742;15.242;2023-05-29T06:27:14;15.46;69.86
69335;SHT31;56477;52.742;15.242;2023-05-29T06:29:40;15.59;69.45
69335;SHT31;56477;52.742;15.242;2023-05-29T06:32:06;15.83;68.80
69335;SHT31;56477;52.742;15.242;2023-05-29T06:34:32;16.20;68.42
69335;SHT31;56477;52.742;15.242;2023-05-29T06:36:58;16.48;67.02
69335;SHT31;56477;52.742;15.242;2023-05-29T06:39:24;16.72;66.92
69335;SHT31;56477;52.742;15.242;2023-05-29T06:41:50;16.75;66.15
69335;SHT31;56477;52.742;15.242;2023-05-29T06:44:16;16.95;65.28
69335;SHT31;56477;52.742;15.242;2023-05-29T06:46:45;17.03;64.29
69335;SHT31;56477;52.742;15.242;2023-05-29T06:49:10;17.22;63.45
69335;SHT31;56477;52.742;15.242;2023-05-29T06:51:36;17.27;62.21
69335;SHT31;56477;52.742;15.242;2023-05-29T06:54:02;17.37;63.17
69335;SHT31;56477;52.742;15.242;2023-05-29T06:56:28;17.44;61.92
69335;SHT31;56477;52.742;15.242;2023-05-29T06:58:55;17.39;62.16
69335;SHT31;56477;52.742;15.242;2023-05-29T07:01:22;17.40;61.35
69335;SHT31;56477;52.742;15.242;2023-05-29T07:03:52;17.67;61.24
69335;SHT31;56477;52.742;15.242;2023-05-29T07:06:18;17.97;59.81
69335;SHT31;56477;52.742;15.242;2023-05-29T07:08:44;18.28;59.53
69335;SHT31;56477;52.742;15.242;2023-05-29T07:11:12;18.64;58.41
69335;SHT31;56477;52.742;15.242;2023-05-29T07:13:38;18.88;57.33
69335;SHT31;56477;52.742;15.242;2023-05-29T07:16:04;19.39;56.21
69335;SHT31;56477;52.742;15.242;2023-05-29T07:18:30;20.42;53.19
69335;SHT31;56477;52.742;15.242;2023-05-29T07:20:57;21.58;50.75
69335;SHT31;56477;52.742;15.242;2023-05-29T07:23:24;21.69;48.45
69335;SHT31;56477;52.742;15.242;2023-05-29T07:25:52;22.64;48.38
69335;SHT31;56477;52.742;15.242;2023-05-29T07:28:18;22.80;47.84
69335;SHT31;56477;52.742;15.242;2023-05-29T07:30:44;22.63;46.65
69335;SHT31;56477;52.742;15.242;2023-05-29T07:33:10;23.33;45.23
69335;SHT31;56477;52.742;15.242;2023-05-29T07:35:36;23.04;45.84
69335;SHT31;56477;52.742;15.242;2023-05-29T07:38:02;23.23;44.24
69335;SHT31;56477;52.742;15.242;2023-05-29T07:40:28;23.32;43.89
69335;SHT31;56477;52.742;15.242;2023-05-29T07:42:54;22.70;44.67
69335;SHT31;56477;52.742;15.242;2023-05-29T07:45:20;22.54;46.29
69335;SHT31;56477;52.742;15.242;2023-05-29T07:47:46;22.17;47.38
69335;SHT31;56477;52.742;15.242;2023-05-29T07:50:14;23.07;44.08
69335;SHT31;56477;52.742;15.242;2023-05-29T07:52:39;23.43;43.64
69335;SHT31;56477;52.742;15.242;2023-05-29T07:55:06;22.70;46.50
69335;SHT31;56477;52.742;15.242;2023-05-29T07:57:32;24.16;43.35
69335;SHT31;56477;52.742;15.242;2023-05-29T08:00:01;24.89;41.17
69335;SHT31;56477;52.742;15.242;2023-05-29T08:02:34;25.26;39.65
69335;SHT31;56477;52.742;15.242;2023-05-29T08:05:03;25.40;39.92
69335;SHT31;56477;52.742;15.242;2023-05-29T08:07:29;25.05;39.95
69335;SHT31;56477;52.742;15.242;2023-05-29T08:09:56;24.45;39.63
69335;SHT31;56477;52.742;15.242;2023-05-29T08:12:22;24.44;39.08
69335;SHT31;56477;52.742;15.242;2023-05-29T08:14:48;23.26;40.60
69335;SHT31;56477;52.742;15.242;2023-05-29T08:17:14;24.41;40.14
69335;SHT31;56477;52.742;15.242;2023-05-29T08:19:40;24.80;37.70
69335;SHT31;56477;52.742;15.242;2023-05-29T08:22:06;25.31;39.04
69335;SHT31;56477;52.742;15.242;2023-05-29T08:24:32;25.57;37.94
69335;SHT31;56477;52.742;15.242;2023-05-29T08:26:58;25.65;38.00
69335;SHT31;56477;52.742;15.242;2023-05-29T08:29:24;25.03;38.11
69335;SHT31;56477;52.742;15.242;2023-05-29T08:31:49;23.29;39.75
69335;SHT31;56477;52.742;15.242;2023-05-29T08:34:16;21.02;43.60
69335;SHT31;56477;52.742;15.242;2023-05-29T08:36:42;19.86;44.12
69335;SHT31;56477;52.742;15.242;2023-05-29T08:39:09;19.96;45.26
69335;SHT31;56477;52.742;15.242;2023-05-29T08:44:23;23.10;42.40
69335;SHT31;56477;52.742;15.242;2023-05-29T08:46:54;24.54;39.04
69335;SHT31;56477;52.742;15.242;2023-05-29T08:49:21;25.09;37.96
69335;SHT31;56477;52.742;15.242;2023-05-29T08:51:56;24.73;37.83
69335;SHT31;56477;52.742;15.242;2023-05-29T08:54:23;25.88;37.39
69335;SHT31;56477;52.742;15.242;2023-05-29T08:56:49;26.03;36.60
69335;SHT31;56477;52.742;15.242;2023-05-29T08:59:16;25.60;36.68
69335;SHT31;56477;52.742;15.242;2023-05-29T09:01:43;24.52;38.79
69335;SHT31;56477;52.742;15.242;2023-05-29T09:04:12;24.06;39.67
69335;SHT31;56477;52.742;15.242;2023-05-29T09:06:38;24.03;38.40
69335;SHT31;56477;52.742;15.242;2023-05-29T09:09:06;24.92;38.45
69335;SHT31;56477;52.742;15.242;2023-05-29T09:11:32;25.30;37.70
69335;SHT31;56477;52.742;15.242;2023-05-29T09:13:59;26.25;36.08
69335;SHT31;56477;52.742;15.242;2023-05-29T09:16:25;26.29;35.75
69335;SHT31;56477;52.742;15.242;2023-05-29T09:18:53;24.48;38.11
69335;SHT31;56477;52.742;15.242;2023-05-29T09:21:30;23.35;39.24
69335;SHT31;56477;52.742;15.242;2023-05-29T09:24:05;22.16;42.18
69335;SHT31;56477;52.742;15.242;2023-05-29T09:26:31;22.53;40.99
69335;SHT31;56477;52.742;15.242;2023-05-29T09:28:58;23.08;40.01
69335;SHT31;56477;52.742;15.242;2023-05-29T09:31:24;21.02;45.02
69335;SHT31;56477;52.742;15.242;2023-05-29T09:33:50;21.65;44.20
69335;SHT31;56477;52.742;15.242;2023-05-29T09:36:22;22.28;42.87
69335;SHT31;56477;52.742;15.242;2023-05-29T09:38:49;22.42;41.49
69335;SHT31;56477;52.742;15.242;2023-05-29T09:41:23;23.42;40.88
69335;SHT31;56477;52.742;15.242;2023-05-29T09:43:50;24.14;38.87
69335;SHT31;56477;52.742;15.242;2023-05-29T09:46:16;22.01;43.81
69335;SHT31;56477;52.742;15.242;2023-05-29T09:48:46;21.03;45.70
69335;SHT31;56477;52.742;15.242;2023-05-29T09:51:20;22.52;43.81
69335;SHT31;56477;52.742;15.242;2023-05-29T09:53:47;23.73;40.73
69335;SHT31;56477;52.742;15.242;2023-05-29T09:56:15;23.56;40.34
69335;SHT31;56477;52.742;15.242;2023-05-29T09:58:44;22.74;41.81
69335;SHT31;56477;52.742;15.242;2023-05-29T10:01:13;22.19;43.97
69335;SHT31;56477;52.742;15.242;2023-05-29T10:03:42;21.84;44.85
69335;SHT31;56477;52.742;15.242;2023-05-29T10:06:10;21.78;45.24
69335;SHT31;56477;52.742;15.242;2023-05-29T10:08:42;21.46;45.79
69335;SHT31;56477;52.742;15.242;2023-05-29T10:11:11;21.79;44.08
69335;SHT31;56477;52.742;15.242;2023-05-29T10:13:42;22.84;42.26
69335;SHT31;56477;52.742;15.242;2023-05-29T10:16:14;23.22;41.19
69335;SHT31;56477;52.742;15.242;2023-05-29T10:18:44;23.04;40.84
69335;SHT31;56477;52.742;15.242;2023-05-29T10:21:15;22.88;42.45
69335;SHT31;56477;52.742;15.242;2023-05-29T10:23:46;21.99;43.59
69335;SHT31;56477;52.742;15.242;2023-05-29T10:26:18;21.46;44.41
69335;SHT31;56477;52.742;15.242;2023-05-29T10:28:55;21.59;43.01
69335;SHT31;56477;52.742;15.242;2023-05-29T10:31:39;21.55;43.06
69335;SHT31;56477;52.742;15.242;2023-05-29T10:37:04;24.17;39.40
69335;SHT31;56477;52.742;15.242;2023-05-29T10:39:32;24.11;39.75
69335;SHT31;56477;52.742;15.242;2023-05-29T10:41:59;24.83;38.96
69335;SHT31;56477;52.742;15.242;2023-05-29T10:49:25;24.54;36.86
69335;SHT31;56477;52.742;15.242;2023-05-29T10:51:52;23.07;40.00
69335;SHT31;56477;52.742;15.242;2023-05-29T10:54:25;23.12;39.97
69335;SHT31;56477;52.742;15.242;2023-05-29T10:57:00;23.70;39.10
69335;SHT31;56477;52.742;15.242;2023-05-29T10:59:27;23.29;39.12
69335;SHT31;56477;52.742;15.242;2023-05-29T11:01:54;24.41;38.35
69335;SHT31;56477;52.742;15.242;2023-05-29T11:06:47;24.88;36.99
69335;SHT31;56477;52.742;15.242;2023-05-29T11:09:26;25.71;36.75
69335;SHT31;56477;52.742;15.242;2023-05-29T11:14:47;22.95;41.45
69335;SHT31;56477;52.742;15.242;2023-05-29T11:20:08;21.91;41.96
69335;SHT31;56477;52.742;15.242;2023-05-29T11:23:06;22.75;39.33
69335;SHT31;56477;52.742;15.242;2023-05-29T11:25:38;22.75;40.34
69335;SHT31;56477;52.742;15.242;2023-05-29T11:28:04;23.72;39.40
69335;SHT31;56477;52.742;15.242;2023-05-29T11:30:47;24.28;38.75
69335;SHT31;56477;52.742;15.242;2023-05-29T11:33:23;24.68;37.64
69335;SHT31;56477;52.742;15.242;2023-05-29T11:35:59;22.47;40.51
69335;SHT31;56477;52.742;15.242;2023-05-29T11:38:26;22.67;42.19
69335;SHT31;56477;52.742;15.242;2023-05-29T11:40:54;22.64;42.25
69335;SHT31;56477;52.742;15.242;2023-05-29T11:43:21;22.61;42.85
69335;SHT31;56477;52.742;15.242;2023-05-29T11:45:47;22.16;42.63
69335;SHT31;56477;52.742;15.242;2023-05-29T11:48:13;22.10;42.62
69335;SHT31;56477;52.742;15.242;2023-05-29T11:50:39;22.05;42.43
69335;SHT31;56477;52.742;15.242;2023-05-29T11:53:06;21.17;43.69
69335;SHT31;56477;52.742;15.242;2023-05-29T11:55:33;21.75;43.44
69335;SHT31;56477;52.742;15.242;2023-05-29T11:58:00;21.13;44.13
69335;SHT31;56477;52.742;15.242;2023-05-29T12:00:31;21.85;43.54
69335;SHT31;56477;52.742;15.242;2023-05-29T12:02:58;22.60;41.59
69335;SHT31;56477;52.742;15.242;2023-05-29T12:05:43;22.94;41.82
69335;SHT31;56477;52.742;15.242;2023-05-29T12:08:10;24.86;39.87
69335;SHT31;56477;52.742;15.242;2023-05-29T12:10:36;25.84;37.33
69335;SHT31;56477;52.742;15.242;2023-05-29T12:13:02;24.92;37.73
69335;SHT31;56477;52.742;15.242;2023-05-29T12:15:28;25.36;37.95
69335;SHT31;56477;52.742;15.242;2023-05-29T12:17:55;25.10;37.42
69335;SHT31;56477;52.742;15.242;2023-05-29T12:20:25;24.47;37.89
69335;SHT31;56477;52.742;15.242;2023-05-29T12:22:59;24.67;39.04
69335;SHT31;56477;52.742;15.242;2023-05-29T12:25:28;24.95;38.00
69335;SHT31;56477;52.742;15.242;2023-05-29T12:27:57;23.16;39.10
69335;SHT31;56477;52.742;15.242;2023-05-29T12:30:24;22.54;40.73
69335;SHT31;56477;52.742;15.242;2023-05-29T12:32:51;22.02;43.16
69335;SHT31;56477;52.742;15.242;2023-05-29T12:35:20;21.79;42.98
69335;SHT31;56477;52.742;15.242;2023-05-29T12:37:48;22.40;41.67
69335;SHT31;56477;52.742;15.242;2023-05-29T12:40:21;24.22;39.62
69335;SHT31;56477;52.742;15.242;2023-05-29T12:45:27;24.25;37.19
69335;SHT31;56477;52.742;15.242;2023-05-29T12:50:22;24.20;37.98
69335;SHT31;56477;52.742;15.242;2023-05-29T12:55:31;23.31;39.84
69335;SHT31;56477;52.742;15.242;2023-05-29T12:58:16;23.62;38.89
69335;SHT31;56477;52.742;15.242;2023-05-29T13:00:43;24.76;38.11
69335;SHT31;56477;52.742;15.242;2023-05-29T13:03:11;25.43;37.47
69335;SHT31;56477;52.742;15.242;2023-05-29T13:05:37;23.56;39.38
69335;SHT31;56477;52.742;15.242;2023-05-29T13:08:03;22.77;41.54
69335;SHT31;56477;52.742;15.242;2023-05-29T13:10:33;22.86;40.76
69335;SHT31;56477;52.742;15.242;2023-05-29T13:13:02;22.63;41.11
69335;SHT31;56477;52.742;15.242;2023-05-29T13:15:29;22.80;41.54
69335;SHT31;56477;52.742;15.242;2023-05-29T13:17:55;22.83;40.82
69335;SHT31;56477;52.742;15.242;2023-05-29T13:20:21;22.65;40.18
69335;SHT31;56477;52.742;15.242;2023-05-29T13:22:47;23.79;39.43
69335;SHT31;56477;52.742;15.242;2023-05-29T13:25:15;24.09;38.10
69335;SHT31;56477;52.742;15.242;2023-05-29T13:27:44;24.35;38.07
69335;SHT31;56477;52.742;15.242;2023-05-29T13:30:11;24.38;37.84
69335;SHT31;56477;52.742;15.242;2023-05-29T13:32:38;22.86;38.86
69335;SHT31;56477;52.742;15.242;2023-05-29T13:35:04;22.25;41.50
69335;SHT31;56477;52.742;15.242;2023-05-29T13:37:30;22.12;41.49
69335;SHT31;56477;52.742;15.242;2023-05-29T13:39:57;22.30;42.23
69335;SHT31;56477;52.742;15.242;2023-05-29T13:42:23;21.10;43.46
69335;SHT31;56477;52.742;15.242;2023-05-29T13:44:50;21.14;43.84
69335;SHT31;56477;52.742;15.242;2023-05-29T13:47:16;21.46;42.86
69335;SHT31;56477;52.742;15.242;2023-05-29T13:49:42;21.41;42.23
69335;SHT31;56477;52.742;15.242;2023-05-29T13:52:08;21.62;42.68
69335;SHT31;56477;52.742;15.242;2023-05-29T13:54:34;22.77;40.78
69335;SHT31;56477;52.742;15.242;2023-05-29T13:57:02;22.35;40.68
69335;SHT31;56477;52.742;15.242;2023-05-29T13:59:32;23.19;39.79
69335;SHT31;56477;52.742;15.242;2023-05-29T14:01:58;23.22;40.23
69335;SHT31;56477;52.742;15.242;2023-05-29T14:04:26;22.78;41.11
69335;SHT31;56477;52.742;15.242;2023-05-29T14:06:52;22.57;42.34
69335;SHT31;56477;52.742;15.242;2023-05-29T14:09:18;21.95;42.83
69335;SHT31;56477;52.742;15.242;2023-05-29T14:11:55;21.79;43.53
69335;SHT31;56477;52.742;15.242;2023-05-29T14:14:21;21.84;44.35
69335;SHT31;56477;52.742;15.242;2023-05-29T14:16:48;22.40;42.88
69335;SHT31;56477;52.742;15.242;2023-05-29T14:19:15;22.68;42.08
69335;SHT31;56477;52.742;15.242;2023-05-29T14:21:41;22.84;41.96
69335;SHT31;56477;52.742;15.242;2023-05-29T14:24:07;22.81;41.59
69335;SHT31;56477;52.742;15.242;2023-05-29T14:26:37;22.87;42.25
69335;SHT31;56477;52.742;15.242;2023-05-29T14:29:04;22.60;42.69
69335;SHT31;56477;52.742;15.242;2023-05-29T14:31:30;22.33;42.63
69335;SHT31;56477;52.742;15.242;2023-05-29T14:33:56;21.99;43.36
69335;SHT31;56477;52.742;15.242;2023-05-29T14:36:22;21.47;44.68
69335;SHT31;56477;52.742;15.242;2023-05-29T14:38:50;20.88;44.94
69335;SHT31;56477;52.742;15.242;2023-05-29T14:41:16;20.41;45.82
69335;SHT31;56477;52.742;15.242;2023-05-29T14:43:42;20.88;45.98
69335;SHT31;56477;52.742;15.242;2023-05-29T14:46:08;21.73;45.15
69335;SHT31;56477;52.742;15.242;2023-05-29T14:48:35;22.43;43.88
69335;SHT31;56477;52.742;15.242;2023-05-29T14:51:01;22.81;40.83
69335;SHT31;56477;52.742;15.242;2023-05-29T14:53:27;22.23;43.28
69335;SHT31;56477;52.742;15.242;2023-05-29T14:55:56;21.94;43.29
69335;SHT31;56477;52.742;15.242;2023-05-29T14:58:22;21.96;43.24
69335;SHT31;56477;52.742;15.242;2023-05-29T15:00:47;22.36;42.84
69335;SHT31;56477;52.742;15.242;2023-05-29T15:03:14;22.61;42.52
69335;SHT31;56477;52.742;15.242;2023-05-29T15:05:40;22.73;41.46
69335;SHT31;56477;52.742;15.242;2023-05-29T15:08:06;22.91;42.45
69335;SHT31;56477;52.742;15.242;2023-05-29T15:10:32;23.01;41.48
69335;SHT31;56477;52.742;15.242;2023-05-29T15:12:58;22.77;42.00
69335;SHT31;56477;52.742;15.242;2023-05-29T15:15:25;23.01;42.20
69335;SHT31;56477;52.742;15.242;2023-05-29T15:17:52;22.93;42.06
69335;SHT31;56477;52.742;15.242;2023-05-29T15:20:25;23.05;41.45
69335;SHT31;56477;52.742;15.242;2023-05-29T15:22:52;22.77;43.00
69335;SHT31;56477;52.742;15.242;2023-05-29T15:25:21;22.73;41.84
69335;SHT31;56477;52.742;15.242;2023-05-29T15:27:48;22.42;42.72
69335;SHT31;56477;52.742;15.242;2023-05-29T15:30:16;22.13;42.61
69335;SHT31;56477;52.742;15.242;2023-05-29T15:32:46;21.61;44.07
69335;SHT31;56477;52.742;15.242;2023-05-29T15:35:14;21.24;44.80
69335;SHT31;56477;52.742;15.242;2023-05-29T15:37:41;21.26;44.94
69335;SHT31;56477;52.742;15.242;2023-05-29T15:40:07;21.22;45.24
69335;SHT31;56477;52.742;15.242;2023-05-29T15:42:37;21.13;46.11
69335;SHT31;56477;52.742;15.242;2023-05-29T15:45:07;20.98;46.01
69335;SHT31;56477;52.742;15.242;2023-05-29T15:47:33;20.90;45.83
69335;SHT31;56477;52.742;15.242;2023-05-29T15:50:01;20.85;46.49
69335;SHT31;56477;52.742;15.242;2023-05-29T15:52:27;20.83;46.20
69335;SHT31;56477;52.742;15.242;2023-05-29T15:54:53;20.73;46.35